Terminal Aerodrome Forecast
Issued by NWS

Home | Current Version | Previous Version | Text Only | Print | Product List | Glossary On
Versions: 1 2 3 4 5 6 7 8 9 10 11 12 13 14
390
FTUS43 KGRR 061148
TAFMKG
TAF
KMKG 061148Z 0612/0712 10008KT 6SM BR SCT015 OVC200
     FM061400 10008KT 5SM BR OVC015
     FM061700 13008KT P6SM OVC030
     FM062000 22009KT P6SM VCSH BKN015
     FM070100 27012G22KT P6SM BKN035
     FM070600 27014G24KT P6SM OVC030=

USA.gov is the U.S. government's official web portal to all federal, state and local government web resources and services.